Coalinga, California
Current Conditions -  °F | °C
As of 2:56 PM on Monday 22 Dec 2014 (Local Time) from KNLC Reporting Station
Overcast Overcast  
Wind Chill: 61°   Ceiling: 3300
Heat Index: 61°   Visibility: 7mi
Dew Point: 56°   Wind: 12mph
Humidity: 83%   Direction: 340°NNW
Pressure: 30.19"   Gusts: NA
Location:  36.14°N, 120.36°W
Report Text: KNLC 222256Z 34010KT 7SM SCT012 OVC033 16/13 A3019 RMK AO2 SLP222 RH/83 T01610133 $
Loading
Personal Weather Stations






























Interactive Weather Map New forecast layout! Learn more

10-Day Weather Forecast

Advertisements
Track Severe Weather on mobile